Time,TemperatureF,DewpointF,PressureIn,WindDirection,WindDirectionDegrees,WindSpeedMPH,WindSpeedGustMPH,Humidity,HourlyPrecipIn,Conditions,Clouds,dailyrainin,SoftwareType,DateUTC
2013-02-17 00:01:00,27.0,3.0,-100.00,WNW,288,2.0,4.0,35,0.00,,,0.01,,2013-02-17 07:01:00,
2013-02-17 00:11:00,27.0,3.0,-100.00,WNW,288,2.0,4.0,35,0.00,,,0.01,,2013-02-17 07:11:00,
2013-02-17 00:21:00,27.0,3.0,-100.00,WNW,288,2.0,4.0,35,0.00,,,0.01,,2013-02-17 07:21:00,
2013-02-17 00:31:00,27.0,3.0,-100.00,WNW,288,2.0,4.0,35,0.00,,,0.01,,2013-02-17 07:31:00,
2013-02-17 00:40:00,26.0,2.0,-100.00,WNW,297,2.0,4.0,35,0.00,,,0.01,,2013-02-17 07:40:00,
2013-02-17 01:01:00,26.0,2.0,-100.00,WNW,297,2.0,4.0,35,0.00,,,0.01,,2013-02-17 08:01:00,
2013-02-17 01:11:00,26.0,2.0,-100.00,WNW,297,2.0,4.0,35,0.00,,,0.01,,2013-02-17 08:11:00,
2013-02-17 01:21:00,26.0,2.0,-100.00,WNW,297,2.0,4.0,35,0.00,,,0.01,,2013-02-17 08:21:00,
2013-02-17 01:31:00,26.0,2.0,-100.00,WNW,297,2.0,4.0,35,0.00,,,0.01,,2013-02-17 08:31:00,
2013-02-17 01:40:00,25.0,2.0,-100.00,WNW,290,2.0,4.0,37,0.00,,,0.00,,2013-02-17 08:40:00,
2013-02-17 02:02:00,25.0,2.0,-100.00,WNW,290,2.0,4.0,37,0.00,,,0.00,,2013-02-17 09:02:00,
2013-02-17 02:11:00,25.0,2.0,-100.00,WNW,290,2.0,4.0,37,0.00,,,0.00,,2013-02-17 09:11:00,
2013-02-17 02:21:00,25.0,2.0,-100.00,WNW,290,2.0,4.0,37,0.00,,,0.00,,2013-02-17 09:21:00,
2013-02-17 02:31:00,25.0,2.0,-100.00,WNW,290,2.0,4.0,37,0.00,,,0.00,,2013-02-17 09:31:00,
2013-02-17 02:40:00,24.0,2.0,-100.00,WNW,294,2.0,6.0,37,0.00,,,0.00,,2013-02-17 09:40:00,
2013-02-17 03:01:00,24.0,2.0,-100.00,WNW,294,2.0,6.0,37,0.00,,,0.00,,2013-02-17 10:01:00,
2013-02-17 03:11:00,24.0,2.0,-100.00,WNW,294,2.0,6.0,37,0.00,,,0.00,,2013-02-17 10:11:00,
2013-02-17 03:21:00,24.0,2.0,-100.00,WNW,294,2.0,6.0,37,0.00,,,0.00,,2013-02-17 10:21:00,
2013-02-17 03:31:00,24.0,2.0,-100.00,WNW,294,2.0,6.0,37,0.00,,,0.00,,2013-02-17 10:31:00,
2013-02-17 03:40:00,23.0,0.0,-100.00,WNW,286,2.0,8.0,36,0.00,,,0.00,,2013-02-17 10:40:00,
2013-02-17 04:01:00,23.0,0.0,-100.00,WNW,286,2.0,8.0,36,0.00,,,0.00,,2013-02-17 11:01:00,
2013-02-17 04:11:00,23.0,0.0,-100.00,WNW,286,2.0,8.0,36,0.00,,,0.00,,2013-02-17 11:11:00,
2013-02-17 04:21:00,23.0,0.0,-100.00,WNW,286,2.0,8.0,36,0.00,,,0.00,,2013-02-17 11:21:00,
2013-02-17 04:32:00,23.0,0.0,-100.00,WNW,286,2.0,8.0,36,0.00,,,0.00,,2013-02-17 11:32:00,
2013-02-17 04:40:00,23.0,1.0,-100.00,NW,309,4.0,5.0,37,0.00,,,0.00,,2013-02-17 11:40:00,
2013-02-17 05:03:00,23.0,1.0,-100.00,NW,309,4.0,5.0,37,0.00,,,0.00,,2013-02-17 12:03:00,
2013-02-17 05:11:00,23.0,1.0,-100.00,NW,309,4.0,5.0,37,0.00,,,0.00,,2013-02-17 12:11:00,
2013-02-17 05:22:00,23.0,1.0,-100.00,NW,309,4.0,5.0,37,0.00,,,0.00,,2013-02-17 12:22:00,
2013-02-17 05:32:00,23.0,1.0,-100.00,NW,309,4.0,5.0,37,0.00,,,0.00,,2013-02-17 12:32:00,
2013-02-17 05:40:00,24.0,-2.0,-100.00,West,269,3.0,6.0,31,0.00,,,0.00,,2013-02-17 12:40:00,
2013-02-17 06:02:00,24.0,-2.0,-100.00,West,269,3.0,6.0,31,0.00,,,0.00,,2013-02-17 13:02:00,
2013-02-17 06:12:00,24.0,-2.0,-100.00,West,269,3.0,6.0,31,0.00,,,0.00,,2013-02-17 13:12:00,
2013-02-17 06:22:00,24.0,-2.0,-100.00,West,269,3.0,6.0,31,0.00,,,0.00,,2013-02-17 13:22:00,
2013-02-17 06:32:00,24.0,-2.0,-100.00,West,269,3.0,6.0,31,0.00,,,0.00,,2013-02-17 13:32:00,
2013-02-17 06:40:00,21.0,-1.0,-100.00,WNW,301,3.0,6.0,37,0.00,,,0.00,,2013-02-17 13:40:00,
2013-02-17 07:01:00,21.0,-1.0,-100.00,WNW,301,3.0,6.0,37,0.00,,,0.00,,2013-02-17 14:01:00,
2013-02-17 07:11:00,21.0,-1.0,-100.00,WNW,301,3.0,6.0,37,0.00,,,0.00,,2013-02-17 14:11:00,
2013-02-17 07:21:00,21.0,-1.0,-100.00,WNW,301,3.0,6.0,37,0.00,,,0.00,,2013-02-17 14:21:00,
2013-02-17 07:32:00,21.0,-1.0,-100.00,WNW,301,3.0,6.0,37,0.00,,,0.00,,2013-02-17 14:32:00,
2013-02-17 07:40:00,26.0,0.0,-100.00,WNW,298,2.0,6.0,32,0.00,,,-99.99,,2013-02-17 14:40:00,
2013-02-17 08:02:00,26.0,0.0,-100.00,WNW,298,2.0,6.0,32,0.00,,,-99.99,,2013-02-17 15:02:00,
2013-02-17 08:11:00,26.0,0.0,-100.00,WNW,298,2.0,6.0,32,0.00,,,-99.99,,2013-02-17 15:11:00,
2013-02-17 08:21:00,26.0,0.0,-100.00,WNW,298,2.0,6.0,32,0.00,,,-99.99,,2013-02-17 15:21:00,
2013-02-17 08:32:00,26.0,0.0,-100.00,WNW,298,2.0,6.0,32,0.00,,,-99.99,,2013-02-17 15:32:00,
2013-02-17 09:01:00,38.0,6.0,-100.00,NNE,15,2.0,4.0,26,0.00,,,0.00,,2013-02-17 16:01:00,
2013-02-17 10:02:00,43.0,6.0,-100.00,SE,144,3.0,6.0,21,0.00,,,0.00,,2013-02-17 17:02:00,
2013-02-17 11:02:00,46.0,10.0,-100.00,East,95,4.0,8.0,23,-99.99,,,0.00,,2013-02-17 18:02:00,
2013-02-17 11:40:00,49.0,9.0,-100.00,East,97,4.0,9.0,19,0.00,,,0.00,,2013-02-17 18:40:00,
2013-02-17 12:01:00,49.0,9.0,-100.00,East,97,4.0,9.0,19,0.00,,,0.00,,2013-02-17 19:01:00,
2013-02-17 12:40:00,50.0,7.0,-100.00,SE,141,5.0,10.0,17,0.00,,,0.00,,2013-02-17 19:40:00,
2013-02-17 13:02:00,50.0,7.0,-100.00,SE,141,5.0,10.0,17,0.00,,,0.00,,2013-02-17 20:02:00,
2013-02-17 13:11:00,50.0,7.0,-100.00,SE,141,5.0,10.0,17,0.00,,,0.00,,2013-02-17 20:11:00,
2013-02-17 13:21:00,50.0,7.0,-100.00,SE,141,5.0,10.0,17,0.00,,,0.00,,2013-02-17 20:21:00,
2013-02-17 13:32:00,50.0,7.0,-100.00,SE,141,5.0,10.0,17,0.00,,,0.00,,2013-02-17 20:32:00,
2013-02-17 13:40:00,51.0,6.0,-100.00,SE,145,8.0,13.0,16,0.00,,,0.00,,2013-02-17 20:40:00,
2013-02-17 14:02:00,51.0,6.0,-100.00,SE,145,8.0,13.0,16,0.00,,,0.00,,2013-02-17 21:02:00,
2013-02-17 14:11:00,51.0,6.0,-100.00,SE,145,8.0,13.0,16,0.00,,,0.00,,2013-02-17 21:11:00,
2013-02-17 14:21:00,51.0,6.0,-100.00,SE,145,8.0,13.0,16,0.00,,,0.00,,2013-02-17 21:21:00,
2013-02-17 14:32:00,51.0,6.0,-100.00,SE,145,8.0,13.0,16,0.00,,,0.00,,2013-02-17 21:32:00,
2013-02-17 14:40:00,56.0,0.0,-100.00,South,177,8.0,15.0,10,0.00,,,-99.99,,2013-02-17 21:40:00,
2013-02-17 15:01:00,56.0,0.0,-100.00,South,177,8.0,15.0,10,0.00,,,-99.99,,2013-02-17 22:01:00,
2013-02-17 15:12:00,56.0,0.0,-100.00,South,177,8.0,15.0,10,0.00,,,-99.99,,2013-02-17 22:12:00,
2013-02-17 15:22:00,56.0,0.0,-100.00,South,177,8.0,15.0,10,0.00,,,-99.99,,2013-02-17 22:22:00,
2013-02-17 15:32:00,56.0,0.0,-100.00,South,177,8.0,15.0,10,0.00,,,-99.99,,2013-02-17 22:32:00,
2013-02-17 15:40:00,56.0,-7.0,-100.00,SW,221,8.0,22.0,7,0.00,,,0.00,,2013-02-17 22:40:00,
2013-02-17 16:02:00,56.0,-7.0,-100.00,SW,221,8.0,22.0,7,0.00,,,0.00,,2013-02-17 23:02:00,
2013-02-17 16:11:00,56.0,-7.0,-100.00,SW,221,8.0,22.0,7,0.00,,,0.00,,2013-02-17 23:11:00,
2013-02-17 16:21:00,56.0,-7.0,-100.00,SW,221,8.0,22.0,7,0.00,,,0.00,,2013-02-17 23:21:00,
2013-02-17 16:32:00,56.0,-7.0,-100.00,SW,221,8.0,22.0,7,0.00,,,0.00,,2013-02-17 23:32:00,
2013-02-17 16:40:00,53.0,-4.0,-100.00,WSW,245,7.0,17.0,9,0.00,,,0.00,,2013-02-17 23:40:00,
2013-02-17 17:01:00,53.0,-4.0,-100.00,WSW,245,7.0,17.0,9,0.00,,,0.00,,2013-02-18 00:01:00,
2013-02-17 17:11:00,53.0,-4.0,-100.00,WSW,245,7.0,17.0,9,0.00,,,0.00,,2013-02-18 00:11:00,
2013-02-17 17:22:00,53.0,-4.0,-100.00,WSW,245,7.0,17.0,9,0.00,,,0.00,,2013-02-18 00:22:00,
2013-02-17 17:32:00,53.0,-4.0,-100.00,WSW,245,7.0,17.0,9,0.00,,,0.00,,2013-02-18 00:32:00,
2013-02-17 17:40:00,47.0,-1.0,-100.00,WSW,250,3.0,14.0,13,0.00,,,0.00,,2013-02-18 00:40:00,
2013-02-17 18:01:00,47.0,-1.0,-100.00,WSW,250,3.0,14.0,13,0.00,,,0.00,,2013-02-18 01:01:00,
2013-02-17 18:12:00,47.0,-1.0,-100.00,WSW,250,3.0,14.0,13,0.00,,,0.00,,2013-02-18 01:12:00,
2013-02-17 18:21:00,47.0,-1.0,-100.00,WSW,250,3.0,14.0,13,0.00,,,0.00,,2013-02-18 01:21:00,
2013-02-17 18:31:00,47.0,-1.0,-100.00,WSW,250,3.0,14.0,13,0.00,,,0.00,,2013-02-18 01:31:00,
2013-02-17 18:40:00,42.0,0.0,-100.00,West,273,3.0,7.0,17,0.00,,,0.00,,2013-02-18 01:40:00,
2013-02-17 19:01:00,42.0,0.0,-100.00,West,273,3.0,7.0,17,0.00,,,0.00,,2013-02-18 02:01:00,
2013-02-17 19:11:00,42.0,0.0,-100.00,West,273,3.0,7.0,17,0.00,,,0.00,,2013-02-18 02:11:00,
2013-02-17 19:21:00,42.0,0.0,-100.00,West,273,3.0,7.0,17,0.00,,,0.00,,2013-02-18 02:21:00,
2013-02-17 19:32:00,42.0,0.0,-100.00,West,273,3.0,7.0,17,0.00,,,0.00,,2013-02-18 02:32:00,
2013-02-17 19:40:00,42.0,2.0,-100.00,West,264,5.0,11.0,18,0.00,,,0.00,,2013-02-18 02:40:00,
2013-02-17 20:01:00,42.0,2.0,-100.00,West,264,5.0,11.0,18,0.00,,,0.00,,2013-02-18 03:01:00,
2013-02-17 20:11:00,42.0,2.0,-100.00,West,264,5.0,11.0,18,0.00,,,0.00,,2013-02-18 03:11:00,
2013-02-17 20:21:00,42.0,2.0,-100.00,West,264,5.0,11.0,18,0.00,,,0.00,,2013-02-18 03:21:00,
2013-02-17 20:32:00,42.0,2.0,-100.00,West,264,5.0,11.0,18,0.00,,,0.00,,2013-02-18 03:32:00,
2013-02-17 20:40:00,39.0,1.0,-100.00,WNW,285,3.0,11.0,20,0.00,,,0.00,,2013-02-18 03:40:00,
2013-02-17 21:01:00,39.0,1.0,-100.00,WNW,285,3.0,11.0,20,0.00,,,0.00,,2013-02-18 04:01:00,
2013-02-17 21:11:00,39.0,1.0,-100.00,WNW,285,3.0,11.0,20,0.00,,,0.00,,2013-02-18 04:11:00,
2013-02-17 21:21:00,39.0,1.0,-100.00,WNW,285,3.0,11.0,20,0.00,,,0.00,,2013-02-18 04:21:00,
2013-02-17 21:32:00,39.0,1.0,-100.00,WNW,285,3.0,11.0,20,0.00,,,0.00,,2013-02-18 04:32:00,
2013-02-17 21:40:00,41.0,4.0,-100.00,WNW,284,3.0,8.0,21,0.00,,,0.00,,2013-02-18 04:40:00,
2013-02-17 22:02:00,41.0,4.0,-100.00,WNW,284,3.0,8.0,21,0.00,,,0.00,,2013-02-18 05:02:00,
2013-02-17 22:11:00,41.0,4.0,-100.00,WNW,284,3.0,8.0,21,0.00,,,0.00,,2013-02-18 05:11:00,
2013-02-17 22:21:00,41.0,4.0,-100.00,WNW,284,3.0,8.0,21,0.00,,,0.00,,2013-02-18 05:21:00,
2013-02-17 22:31:00,41.0,4.0,-100.00,WNW,284,3.0,8.0,21,0.00,,,0.00,,2013-02-18 05:31:00,
2013-02-17 22:40:00,42.0,5.0,-100.00,West,276,5.0,17.0,21,0.00,,,0.00,,2013-02-18 05:40:00,
2013-02-17 23:02:00,42.0,5.0,-100.00,West,276,5.0,17.0,21,0.00,,,0.00,,2013-02-18 06:02:00,
2013-02-17 23:11:00,42.0,5.0,-100.00,West,276,5.0,17.0,21,0.00,,,0.00,,2013-02-18 06:11:00,
2013-02-17 23:21:00,42.0,5.0,-100.00,West,276,5.0,17.0,21,0.00,,,0.00,,2013-02-18 06:21:00,
2013-02-17 23:32:00,42.0,5.0,-100.00,West,276,5.0,17.0,21,0.00,,,0.00,,2013-02-18 06:32:00,
2013-02-17 23:40:00,40.0,4.0,-100.00,WNW,296,4.0,18.0,22,0.00,,,0.00,,2013-02-18 06:40:00,